Time;durP1;ratioP1;P1;durP2;ratioP2;P2;SDS_P1;SDS_P2;PMS_P1;PMS_P2;Temp;Humidity;BMP_temperature;BMP_pressure;BME280_temperature;BME280_humidity;BME280_pressure;Samples;Min_cycle;Max_cycle;Signal;HPM_P1;HPM_P2
2021/10/13 00:00:45;;;;;;;7.80;1.70;;;;;;;4.53;86.72;100134.20;113242;1198;22646;-58
2021/10/13 00:03:17;;;;;;;10.30;1.60;;;;;;;4.48;86.73;100131.81;113414;1198;24548;-56
2021/10/13 00:05:48;;;;;;;7.30;1.50;;;;;;;4.45;86.84;100134.51;113483;1192;26511;-56
2021/10/13 00:08:19;;;;;;;9.90;1.60;;;;;;;4.43;86.85;100141.08;113490;1198;23718;-57
2021/10/13 00:10:51;;;;;;;10.60;2.00;;;;;;;4.40;86.81;100136.79;113479;1198;22391;-56
2021/10/13 00:13:22;;;;;;;9.20;2.00;;;;;;;4.38;86.79;100139.08;113505;1192;22427;-56
2021/10/13 00:15:53;;;;;;;10.30;1.90;;;;;;;4.36;86.86;100137.80;113572;1193;23908;-56
2021/10/13 00:18:26;;;;;;;9.70;2.30;;;;;;;4.33;86.81;100141.42;113463;1198;22435;-53
2021/10/13 00:20:57;;;;;;;8.80;1.90;;;;;;;4.31;86.78;100147.34;113628;1192;22458;-58
2021/10/13 00:23:28;;;;;;;10.90;2.00;;;;;;;4.28;86.74;100148.54;113484;1192;25149;-56
2021/10/13 00:26:00;;;;;;;8.00;1.70;;;;;;;4.26;86.83;100149.46;113486;1198;22410;-55
2021/10/13 00:28:31;;;;;;;6.80;1.50;;;;;;;4.24;86.75;100147.52;113447;1198;22878;-56
2021/10/13 00:31:03;;;;;;;10.60;2.20;;;;;;;4.24;86.81;100145.41;113488;1198;25095;-56
2021/10/13 00:33:34;;;;;;;11.10;2.20;;;;;;;4.23;86.82;100145.66;113592;1192;22433;-56
2021/10/13 00:36:06;;;;;;;10.30;1.70;;;;;;;4.20;86.85;100149.52;113430;1198;22462;-59
2021/10/13 00:38:37;;;;;;;11.50;2.20;;;;;;;4.19;86.89;100150.27;113453;1191;22530;-56
2021/10/13 00:41:08;;;;;;;9.80;1.80;;;;;;;4.19;86.98;100151.31;113520;1198;22445;-59
2021/10/13 00:43:39;;;;;;;10.70;2.00;;;;;;;4.18;87.02;100150.54;113440;1198;22431;-57
2021/10/13 00:46:10;;;;;;;13.20;1.90;;;;;;;4.19;87.05;100153.30;116143;1198;24010;-59
2021/10/13 00:48:41;;;;;;;8.50;1.50;;;;;;;4.18;87.18;100157.16;113556;1192;25739;-56
2021/10/13 00:51:12;;;;;;;7.50;1.80;;;;;;;4.19;87.28;100159.05;113454;1198;24029;-56
2021/10/13 00:53:43;;;;;;;8.20;2.00;;;;;;;4.20;87.32;100156.09;113702;1183;22464;-56
2021/10/13 00:56:15;;;;;;;6.90;1.60;;;;;;;4.22;87.38;100150.51;113508;1198;22435;-57
2021/10/13 00:58:46;;;;;;;7.10;1.70;;;;;;;4.25;87.55;100153.44;113571;1198;25395;-59
2021/10/13 01:01:22;;;;;;;8.00;1.70;;;;;;;4.27;87.67;100149.66;113563;1198;22536;-58
2021/10/13 01:04:11;;;;;;;7.70;1.80;;;;;;;4.30;87.68;100150.67;113629;1198;22428;-57
2021/10/13 01:06:48;;;;;;;10.50;1.90;;;;;;;4.33;87.82;100156.68;113497;1193;22460;-58
2021/10/13 01:09:24;;;;;;;10.80;1.70;;;;;;;4.33;87.80;100162.19;113669;1193;25215;-57
2021/10/13 01:12:13;;;;;;;9.80;2.40;;;;;;;4.35;87.81;100164.02;113611;1192;25120;-58
2021/10/13 01:14:48;;;;;;;7.50;1.50;;;;;;;4.35;87.66;100162.05;113789;1198;22419;-54
2021/10/13 01:17:27;;;;;;;9.70;2.10;;;;;;;4.35;87.57;100165.31;113645;1198;22447;-54
2021/10/13 01:20:07;;;;;;;8.20;2.00;;;;;;;4.35;87.54;100165.86;113679;1198;25483;-58
2021/10/13 01:23:26;;;;;;;6.80;1.60;;;;;;;4.35;87.54;100162.05;113645;1198;25208;-54
2021/10/13 01:26:02;;;;;;;8.80;1.60;;;;;;;4.34;87.45;100164.62;113169;1200;25129;-58
2021/10/13 01:28:36;;;;;;;7.70;1.60;;;;;;;4.32;87.49;100164.44;113250;1193;23852;-56
2021/10/13 01:31:15;;;;;;;9.70;1.90;;;;;;;4.29;87.44;100166.17;113175;1201;25172;-56
2021/10/13 01:33:53;;;;;;;8.10;1.80;;;;;;;4.26;87.44;100170.44;113177;1201;22448;-56
2021/10/13 01:36:28;;;;;;;7.80;1.70;;;;;;;4.24;87.50;100167.66;113024;1201;22443;-56
2021/10/13 01:39:01;;;;;;;8.70;1.70;;;;;;;4.23;87.52;100175.04;113086;1201;24057;-56
2021/10/13 01:41:37;;;;;;;8.20;1.70;;;;;;;4.21;87.48;100172.96;113143;1201;25104;-55
2021/10/13 01:44:12;;;;;;;9.30;2.00;;;;;;;4.19;87.56;100174.12;113169;1193;22430;-58
2021/10/13 01:46:46;;;;;;;7.00;1.70;;;;;;;4.17;87.61;100176.15;113170;1200;22424;-55
2021/10/13 01:49:18;;;;;;;9.10;1.90;;;;;;;4.14;87.61;100174.34;113131;1201;22507;-56
2021/10/13 01:51:50;;;;;;;6.60;1.80;;;;;;;4.13;87.57;100172.80;113165;1201;25482;-56
2021/10/13 01:54:22;;;;;;;6.60;1.50;;;;;;;4.10;87.47;100170.73;113226;1193;22428;-60
2021/10/13 01:56:56;;;;;;;8.90;1.60;;;;;;;4.08;87.38;100174.82;113141;1201;24082;-59
2021/10/13 01:59:28;;;;;;;10.80;1.90;;;;;;;4.06;87.28;100183.33;113018;1200;22437;-58
2021/10/13 02:02:02;;;;;;;6.20;1.30;;;;;;;4.04;87.29;100183.69;113134;1201;25110;-56
2021/10/13 02:04:37;;;;;;;9.70;1.80;;;;;;;4.00;87.30;100184.11;113664;1198;25687;-56
2021/10/13 02:07:12;;;;;;;8.60;1.80;;;;;;;3.97;87.31;100186.70;113460;1193;22590;-55
2021/10/13 02:09:45;;;;;;;11.10;1.80;;;;;;;3.96;87.36;100191.47;113564;1198;22674;-58
2021/10/13 02:12:17;;;;;;;10.20;2.00;;;;;;;3.95;87.35;100183.85;113640;1198;22417;-55
2021/10/13 02:14:49;;;;;;;8.30;2.10;;;;;;;3.95;87.43;100185.66;113581;1191;26370;-55
2021/10/13 02:17:22;;;;;;;7.30;1.50;;;;;;;3.95;87.42;100194.24;113583;1198;25020;-54
2021/10/13 02:19:54;;;;;;;10.20;1.80;;;;;;;3.96;87.44;100201.20;113527;1198;24041;-56
2021/10/13 02:22:30;;;;;;;10.20;1.40;;;;;;;3.94;87.40;100204.15;113488;1198;25065;-57
2021/10/13 02:25:02;;;;;;;7.50;1.60;;;;;;;3.92;87.33;100200.90;113538;1198;22433;-57
2021/10/13 02:27:39;;;;;;;9.00;1.80;;;;;;;3.91;87.36;100198.56;113591;1198;24990;-59
2021/10/13 02:30:12;;;;;;;9.30;1.70;;;;;;;3.89;87.31;100201.23;113588;1198;22657;-56
2021/10/13 02:32:43;;;;;;;8.30;1.70;;;;;;;3.85;87.24;100204.70;113570;1198;22432;-53
2021/10/13 02:35:14;;;;;;;8.70;1.60;;;;;;;3.82;87.28;100205.65;114453;1198;22429;-59
2021/10/13 02:37:46;;;;;;;7.00;1.40;;;;;;;3.79;87.34;100207.08;115097;1198;22423;-59
2021/10/13 02:40:17;;;;;;;7.50;1.60;;;;;;;3.77;87.47;100211.46;113635;1192;22408;-57
2021/10/13 02:42:52;;;;;;;9.20;1.70;;;;;;;3.74;87.52;100214.70;113504;1198;22452;-57
2021/10/13 02:45:24;;;;;;;7.50;1.80;;;;;;;3.72;87.52;100216.41;113479;1198;22416;-53
2021/10/13 02:47:59;;;;;;;9.10;1.70;;;;;;;3.70;87.58;100219.94;113529;1198;22495;-56
2021/10/13 02:50:38;;;;;;;8.40;1.40;;;;;;;3.67;87.65;100223.79;113737;1197;25054;-56
2021/10/13 02:53:17;;;;;;;10.10;1.80;;;;;;;3.63;87.70;100227.52;113533;1198;22508;-56
2021/10/13 02:55:52;;;;;;;7.80;2.30;;;;;;;3.61;87.81;100224.58;113547;1197;25127;-56
2021/10/13 02:58:27;;;;;;;13.10;1.90;;;;;;;3.60;87.87;100230.35;113378;1198;22448;-55
2021/10/13 03:01:01;;;;;;;9.00;1.70;;;;;;;3.59;87.86;100236.08;113407;1192;22383;-55
2021/10/13 03:03:36;;;;;;;9.50;1.50;;;;;;;3.58;87.91;100234.52;113490;1199;22447;-55
2021/10/13 03:06:08;;;;;;;6.50;1.50;;;;;;;3.56;87.91;100233.30;113627;1198;26299;-55
2021/10/13 03:08:42;;;;;;;10.00;1.70;;;;;;;3.54;87.91;100237.23;113426;1192;25065;-56
2021/10/13 03:11:16;;;;;;;11.10;2.00;;;;;;;3.52;88.03;100247.27;113646;1199;25069;-55
2021/10/13 03:13:50;;;;;;;8.30;1.80;;;;;;;3.50;88.07;100246.94;113697;1199;22445;-54
2021/10/13 03:16:23;;;;;;;9.50;1.70;;;;;;;3.49;88.05;100254.45;113569;1198;22436;-58
2021/10/13 03:18:56;;;;;;;7.40;1.90;;;;;;;3.48;88.00;100257.86;113675;1199;22442;-56
2021/10/13 03:21:30;;;;;;;9.30;1.80;;;;;;;3.46;87.89;100259.02;113453;1199;22474;-56
2021/10/13 03:24:00;;;;;;;9.00;1.80;;;;;;;3.45;87.96;100259.36;113502;1199;25044;-55
2021/10/13 03:26:31;;;;;;;9.50;2.00;;;;;;;3.42;87.98;100265.33;113504;1199;22486;-56
2021/10/13 03:29:03;;;;;;;10.70;1.80;;;;;;;3.41;88.00;100267.10;113451;1199;22549;-53
2021/10/13 03:31:34;;;;;;;8.60;1.80;;;;;;;3.39;87.95;100268.02;113465;1199;26285;-56
2021/10/13 03:34:04;;;;;;;7.40;1.60;;;;;;;3.37;87.92;100270.98;113419;1192;22440;-55
2021/10/13 03:36:43;;;;;;;9.10;1.90;;;;;;;3.33;87.93;100270.59;113418;1199;22796;-54
2021/10/13 03:39:14;;;;;;;12.80;1.80;;;;;;;3.32;87.93;100276.07;113597;1199;24050;-55
2021/10/13 03:41:47;;;;;;;9.00;1.50;;;;;;;3.28;87.96;100280.47;113394;1199;25822;-55
2021/10/13 03:44:19;;;;;;;10.30;1.90;;;;;;;3.26;87.83;100282.33;113363;1192;22424;-68
2021/10/13 03:46:52;;;;;;;9.00;1.80;;;;;;;3.23;87.89;100286.81;113402;1199;24177;-53
2021/10/13 03:49:23;;;;;;;8.80;1.70;;;;;;;3.21;87.93;100290.10;113180;1192;25087;-58
2021/10/13 03:51:54;;;;;;;7.90;1.50;;;;;;;3.19;88.12;100291.95;113012;1192;25333;-56
2021/10/13 03:54:25;;;;;;;10.20;1.80;;;;;;;3.18;88.20;100291.34;113334;1192;25067;-57
2021/10/13 03:56:56;;;;;;;9.60;1.90;;;;;;;3.19;88.30;100293.05;113322;1199;22417;-58
2021/10/13 03:59:28;;;;;;;7.90;1.50;;;;;;;3.19;88.33;100294.55;113348;1199;22430;-56
2021/10/13 04:01:59;;;;;;;7.70;1.60;;;;;;;3.19;88.41;100296.45;113312;1199;24774;-62
2021/10/13 04:04:31;;;;;;;7.00;1.40;;;;;;;3.19;88.39;100298.34;113541;1184;24145;-58
2021/10/13 04:07:02;;;;;;;10.50;1.80;;;;;;;3.19;88.43;100306.75;113268;1199;23987;-58
2021/10/13 04:09:33;;;;;;;9.60;1.70;;;;;;;3.20;88.39;100306.13;113309;1192;22423;-55
2021/10/13 04:12:05;;;;;;;9.40;2.20;;;;;;;3.19;88.39;100308.73;113388;1192;25269;-56
2021/10/13 04:14:36;;;;;;;9.20;1.40;;;;;;;3.19;88.26;100312.59;113475;1199;22427;-55
2021/10/13 04:17:07;;;;;;;8.60;1.40;;;;;;;3.20;88.36;100322.44;113315;1192;24913;-58
2021/10/13 04:19:38;;;;;;;8.90;1.80;;;;;;;3.20;88.35;100323.37;113399;1199;25212;-58
2021/10/13 04:22:10;;;;;;;9.90;2.00;;;;;;;3.22;88.47;100327.83;113360;1192;22432;-55
2021/10/13 04:24:41;;;;;;;9.70;1.70;;;;;;;3.23;88.46;100327.81;113299;1199;22494;-55
2021/10/13 04:27:12;;;;;;;6.80;1.70;;;;;;;3.25;88.54;100328.55;113277;1199;24043;-58
2021/10/13 04:29:43;;;;;;;8.60;2.40;;;;;;;3.28;88.59;100331.64;113161;1193;25597;-55
2021/10/13 04:32:14;;;;;;;8.30;1.80;;;;;;;3.30;88.59;100331.27;113515;1199;22635;-55
2021/10/13 04:34:45;;;;;;;10.80;2.50;;;;;;;3.33;88.73;100334.07;113225;1199;23975;-56
2021/10/13 04:37:17;;;;;;;9.10;2.10;;;;;;;3.35;88.75;100333.38;113167;1199;22437;-57
2021/10/13 04:39:48;;;;;;;5.50;1.50;;;;;;;3.39;88.71;100334.66;113312;1199;25116;-60
2021/10/13 04:42:22;;;;;;;9.30;2.10;;;;;;;3.41;88.83;100334.27;113148;1192;25024;-55
2021/10/13 04:44:53;;;;;;;6.30;1.70;;;;;;;3.43;88.78;100331.15;113166;1192;23743;-56
2021/10/13 04:47:24;;;;;;;7.60;1.90;;;;;;;3.45;88.92;100336.63;113204;1199;22745;-54
2021/10/13 04:49:55;;;;;;;8.10;2.00;;;;;;;3.47;88.95;100338.71;113115;1199;22421;-56
2021/10/13 04:52:28;;;;;;;7.60;2.10;;;;;;;3.48;89.02;100338.29;112948;1192;22423;-56
2021/10/13 04:55:00;;;;;;;11.30;2.30;;;;;;;3.50;89.03;100341.08;113134;1199;24088;-56
2021/10/13 04:57:30;;;;;;;8.70;2.00;;;;;;;3.52;89.02;100340.20;113041;1198;22500;-55
2021/10/13 05:00:02;;;;;;;6.90;1.80;;;;;;;3.53;89.00;100339.14;112844;1199;22443;-55
2021/10/13 05:02:33;;;;;;;8.50;1.80;;;;;;;3.53;89.06;100341.02;112944;1199;25137;-57
2021/10/13 05:05:05;;;;;;;11.10;2.70;;;;;;;3.53;88.90;100343.30;115741;1199;22431;-56
2021/10/13 05:07:36;;;;;;;9.50;2.00;;;;;;;3.53;88.95;100349.53;113204;1199;25042;-55
2021/10/13 05:10:08;;;;;;;15.70;3.50;;;;;;;3.54;88.91;100350.23;113066;1196;25094;-57
2021/10/13 05:12:39;;;;;;;9.90;2.30;;;;;;;3.53;88.73;100350.96;113498;1199;22666;-57
2021/10/13 05:15:11;;;;;;;10.20;2.50;;;;;;;3.52;88.77;100352.55;113092;1199;22395;-56
2021/10/13 05:17:43;;;;;;;10.10;2.90;;;;;;;3.52;88.69;100357.68;113378;1193;24060;-55
2021/10/13 05:20:14;;;;;;;11.00;2.60;;;;;;;3.51;88.73;100364.10;113253;1199;25352;-53
2021/10/13 05:22:45;;;;;;;8.70;1.90;;;;;;;3.52;88.62;100366.61;113164;1199;22444;-56
2021/10/13 05:25:16;;;;;;;10.50;2.10;;;;;;;3.51;88.74;100370.17;112933;1199;24115;-57
2021/10/13 05:27:47;;;;;;;12.40;2.30;;;;;;;3.52;88.71;100371.33;112974;1192;22448;-56
2021/10/13 05:30:18;;;;;;;10.50;3.00;;;;;;;3.53;88.74;100371.70;112889;1192;24065;-56
2021/10/13 05:32:49;;;;;;;9.50;2.30;;;;;;;3.54;88.77;100375.05;113262;1199;22609;-56
2021/10/13 05:35:20;;;;;;;12.50;2.90;;;;;;;3.55;88.81;100378.05;113117;1199;25064;-55
2021/10/13 05:37:51;;;;;;;9.50;2.40;;;;;;;3.55;88.82;100383.41;113134;1192;25061;-58
2021/10/13 05:40:22;;;;;;;10.20;2.50;;;;;;;3.57;88.89;100389.28;113195;1199;25152;-57
2021/10/13 05:42:53;;;;;;;9.30;2.30;;;;;;;3.59;88.97;100396.80;113030;1199;25120;-56
2021/10/13 05:45:24;;;;;;;17.20;3.40;;;;;;;3.61;89.04;100402.13;113206;1198;22451;-55
2021/10/13 05:47:55;;;;;;;9.70;2.70;;;;;;;3.63;89.16;100409.08;113293;1198;22443;-54
2021/10/13 05:50:26;;;;;;;12.10;3.30;;;;;;;3.67;89.32;100413.04;113070;1198;22489;-57
2021/10/13 05:52:57;;;;;;;14.40;4.80;;;;;;;3.70;89.29;100414.30;113191;1198;22437;-57
2021/10/13 05:55:28;;;;;;;13.00;3.70;;;;;;;3.74;89.44;100412.17;112867;1192;22414;-53
2021/10/13 05:58:01;;;;;;;15.70;5.70;;;;;;;3.78;89.51;100416.10;112961;1196;24091;-57
2021/10/13 06:00:33;;;;;;;27.10;9.10;;;;;;;3.81;89.58;100417.20;112807;1192;24078;-55
2021/10/13 06:03:04;;;;;;;22.60;6.30;;;;;;;3.85;89.59;100423.52;112918;1198;26387;-56
2021/10/13 06:05:35;;;;;;;36.80;11.60;;;;;;;3.87;89.60;100431.59;113086;1192;25108;-54
2021/10/13 06:08:07;;;;;;;28.00;8.40;;;;;;;3.90;89.63;100436.52;113203;1198;26331;-56
2021/10/13 06:10:38;;;;;;;22.40;8.70;;;;;;;3.93;89.56;100432.96;113263;1198;22429;-54
2021/10/13 06:13:09;;;;;;;17.50;5.90;;;;;;;3.96;89.56;100433.02;113342;1198;22414;-54
2021/10/13 06:15:40;;;;;;;17.70;6.90;;;;;;;4.00;89.62;100439.98;113107;1197;22432;-54
2021/10/13 06:18:12;;;;;;;18.70;6.10;;;;;;;4.02;89.57;100443.40;113191;1198;22451;-56
2021/10/13 06:20:43;;;;;;;19.10;6.30;;;;;;;4.05;89.65;100446.88;117235;1196;22277;-55
2021/10/13 06:23:13;;;;;;;15.70;4.80;;;;;;;4.09;89.74;100448.68;117200;1198;22647;-54
2021/10/13 06:25:44;;;;;;;13.20;3.60;;;;;;;4.14;89.61;100458.61;115806;1198;22445;-54
2021/10/13 06:28:15;;;;;;;10.20;2.70;;;;;;;4.18;89.67;100463.00;112985;1198;24083;-55
2021/10/13 06:30:46;;;;;;;14.30;4.40;;;;;;;4.23;89.66;100462.73;113003;1198;24091;-56
2021/10/13 06:33:17;;;;;;;13.80;4.00;;;;;;;4.27;89.66;100470.38;113007;1198;23748;-53
2021/10/13 06:35:48;;;;;;;16.40;4.40;;;;;;;4.31;89.60;100467.92;113202;1191;24021;-53
2021/10/13 06:38:19;;;;;;;12.30;3.90;;;;;;;4.34;89.58;100468.32;113137;1198;23086;-55
2021/10/13 06:40:50;;;;;;;192.90;90.80;;;;;;;4.37;89.48;100474.80;113056;1198;25413;-54
2021/10/13 06:43:21;;;;;;;45.10;19.80;;;;;;;4.40;89.56;100474.71;113025;1198;23032;-56
2021/10/13 06:45:52;;;;;;;24.80;8.90;;;;;;;4.44;89.55;100475.83;112906;1198;23777;-56
2021/10/13 06:48:23;;;;;;;16.80;5.20;;;;;;;4.47;89.63;100481.19;113024;1198;25232;-53
2021/10/13 06:50:55;;;;;;;17.10;5.20;;;;;;;4.51;89.71;100482.29;112759;1190;24133;-56
2021/10/13 06:53:26;;;;;;;13.90;4.40;;;;;;;4.53;89.65;100490.20;113244;1198;22429;-56
2021/10/13 06:55:59;;;;;;;12.70;3.40;;;;;;;4.57;89.71;100492.78;113235;1198;22438;-54
2021/10/13 06:58:29;;;;;;;12.10;3.30;;;;;;;4.60;89.66;100493.67;113361;1192;23704;-57
2021/10/13 07:01:00;;;;;;;10.50;3.80;;;;;;;4.62;89.65;100489.73;113065;1198;23991;-57
2021/10/13 07:03:31;;;;;;;10.80;3.80;;;;;;;4.66;89.67;100496.11;113023;1198;25496;-56
2021/10/13 07:06:02;;;;;;;14.80;3.80;;;;;;;4.68;89.47;100496.06;112926;1192;22439;-57
2021/10/13 07:08:46;;;;;;;14.30;4.20;;;;;;;4.70;89.50;100500.05;113070;1198;25209;-56
2021/10/13 07:11:21;;;;;;;13.80;4.80;;;;;;;4.73;89.56;100499.35;113024;1198;23777;-57
2021/10/13 07:13:52;;;;;;;11.50;4.20;;;;;;;4.75;89.67;100501.42;112778;1198;22423;-57
2021/10/13 07:16:23;;;;;;;15.80;5.20;;;;;;;4.79;89.85;100503.86;113138;1198;22461;-55
2021/10/13 07:18:54;;;;;;;12.60;3.70;;;;;;;4.82;89.72;100508.35;112851;1198;22471;-56
2021/10/13 07:21:25;;;;;;;16.80;5.40;;;;;;;4.86;89.68;100509.68;113056;1198;22448;-56
2021/10/13 07:23:56;;;;;;;11.30;4.00;;;;;;;4.89;89.68;100511.66;113088;1192;22910;-57
2021/10/13 07:26:27;;;;;;;14.70;3.90;;;;;;;4.92;89.55;100515.78;113136;1193;22416;-56
2021/10/13 07:28:59;;;;;;;13.40;4.20;;;;;;;4.93;89.65;100520.66;113085;1198;22502;-54
2021/10/13 07:31:30;;;;;;;13.70;4.20;;;;;;;4.96;89.46;100519.94;113377;1198;22442;-57
2021/10/13 07:34:01;;;;;;;12.20;3.50;;;;;;;4.99;89.54;100520.56;113165;1198;24059;-55
2021/10/13 07:36:33;;;;;;;16.00;4.30;;;;;;;5.02;89.60;100520.58;113213;1196;22441;-57
2021/10/13 07:39:06;;;;;;;10.30;3.00;;;;;;;5.07;89.74;100522.41;113315;1192;25138;-56
2021/10/13 07:41:38;;;;;;;12.90;4.90;;;;;;;5.12;89.56;100526.72;113327;1198;24110;-53
2021/10/13 07:44:09;;;;;;;10.30;3.40;;;;;;;5.16;89.54;100529.23;113246;1198;25062;-57
2021/10/13 07:46:40;;;;;;;8.30;2.90;;;;;;;5.17;89.38;100533.86;113367;1198;22509;-57
2021/10/13 07:49:11;;;;;;;11.00;3.80;;;;;;;5.18;89.47;100534.06;113342;1192;22802;-56
2021/10/13 07:51:43;;;;;;;11.30;2.80;;;;;;;5.20;89.61;100538.38;113427;1198;22442;-55
2021/10/13 07:54:14;;;;;;;9.90;3.50;;;;;;;5.21;89.41;100545.08;113410;1198;25836;-58
2021/10/13 07:56:45;;;;;;;9.50;3.50;;;;;;;5.21;89.42;100544.84;113300;1198;22417;-57
2021/10/13 07:59:18;;;;;;;13.80;3.70;;;;;;;5.23;89.37;100545.11;113342;1193;25107;-57
2021/10/13 08:01:49;;;;;;;9.00;3.30;;;;;;;5.25;89.55;100552.95;113196;1198;22432;-58
2021/10/13 08:04:21;;;;;;;10.20;3.50;;;;;;;5.26;89.41;100550.95;113142;1192;25138;-58
2021/10/13 08:06:53;;;;;;;12.50;4.30;;;;;;;5.28;89.47;100553.96;113096;1193;25048;-55
2021/10/13 08:09:25;;;;;;;12.10;3.40;;;;;;;5.30;89.36;100557.08;113346;1198;23035;-56
2021/10/13 08:11:55;;;;;;;11.00;3.90;;;;;;;5.30;89.38;100552.82;113109;1198;22444;-55
2021/10/13 08:14:28;;;;;;;13.30;5.30;;;;;;;5.32;89.45;100551.57;113336;1198;24132;-54
2021/10/13 08:17:01;;;;;;;15.30;5.30;;;;;;;5.36;89.69;100552.41;113081;1198;22429;-55
2021/10/13 08:19:32;;;;;;;10.60;4.50;;;;;;;5.41;89.59;100554.11;113186;1198;22466;-57
2021/10/13 08:22:04;;;;;;;9.90;3.20;;;;;;;5.45;89.71;100554.15;113139;1198;22737;-60
2021/10/13 08:24:35;;;;;;;10.70;4.10;;;;;;;5.47;89.44;100557.73;115894;1192;22427;-56
2021/10/13 08:27:08;;;;;;;17.40;4.60;;;;;;;5.50;89.57;100562.64;113417;1192;26338;-59
2021/10/13 08:29:39;;;;;;;13.10;5.20;;;;;;;5.55;89.62;100562.90;113226;1193;22420;-57
2021/10/13 08:32:10;;;;;;;14.70;4.80;;;;;;;5.59;89.45;100564.70;113187;1198;22437;-59
2021/10/13 08:34:41;;;;;;;13.20;4.00;;;;;;;5.62;89.45;100558.27;113295;1198;26376;-57
2021/10/13 08:37:12;;;;;;;11.80;4.70;;;;;;;5.64;89.14;100563.02;113186;1198;24115;-55
2021/10/13 08:39:43;;;;;;;12.30;4.10;;;;;;;5.64;89.17;100565.98;113246;1198;25112;-57
2021/10/13 08:42:14;;;;;;;11.90;3.80;;;;;;;5.65;89.42;100563.64;113182;1198;22521;-58
2021/10/13 08:44:46;;;;;;;15.60;5.80;;;;;;;5.67;89.42;100566.20;113193;1192;23869;-57
2021/10/13 08:47:18;;;;;;;16.40;4.90;;;;;;;5.75;89.65;100564.42;113328;1198;22457;-57
2021/10/13 08:49:51;;;;;;;13.80;4.20;;;;;;;5.86;89.85;100571.64;113276;1198;24209;-56
2021/10/13 08:52:23;;;;;;;9.90;4.30;;;;;;;5.96;89.65;100573.50;113236;1192;22420;-57
2021/10/13 08:54:55;;;;;;;12.40;4.60;;;;;;;6.04;89.47;100577.45;113249;1198;22461;-54
2021/10/13 08:57:30;;;;;;;13.70;3.90;;;;;;;6.13;89.70;100578.14;113399;1198;25294;-57
2021/10/13 09:00:01;;;;;;;10.40;3.80;;;;;;;6.22;89.58;100580.23;113168;1192;25021;-59
2021/10/13 09:02:45;;;;;;;9.50;3.50;;;;;;;6.30;89.20;100580.50;113146;1192;25136;-54
2021/10/13 09:05:17;;;;;;;8.80;2.90;;;;;;;6.34;89.02;100576.65;113202;1192;22433;-57
2021/10/13 09:07:52;;;;;;;9.70;2.90;;;;;;;6.38;88.92;100577.23;113188;1198;22439;-54
2021/10/13 09:10:31;;;;;;;7.40;2.90;;;;;;;6.43;88.91;100581.73;113264;1198;25339;-57
2021/10/13 09:13:04;;;;;;;9.30;3.70;;;;;;;6.52;89.02;100583.38;113392;1198;26347;-59
2021/10/13 09:15:36;;;;;;;10.10;3.60;;;;;;;6.63;89.11;100579.31;113235;1198;24982;-58
2021/10/13 09:18:09;;;;;;;9.50;3.00;;;;;;;6.72;88.81;100574.34;113264;1198;22539;-58
2021/10/13 09:20:41;;;;;;;12.40;4.30;;;;;;;6.81;88.40;100575.59;113247;1198;22451;-59
2021/10/13 09:23:21;;;;;;;8.10;2.50;;;;;;;6.90;88.88;100578.06;113101;1192;22603;-56
2021/10/13 09:26:11;;;;;;;6.70;1.80;;;;;;;6.97;87.74;100579.08;113228;1198;23433;-57
2021/10/13 09:28:58;;;;;;;7.70;2.20;;;;;;;7.01;87.79;100582.45;113251;1198;22439;-59
2021/10/13 09:31:32;;;;;;;8.70;2.50;;;;;;;7.06;87.56;100587.13;113530;1198;25068;-56
2021/10/13 09:34:04;;;;;;;11.00;2.40;;;;;;;7.10;87.42;100590.31;113205;1192;22557;-57
2021/10/13 09:36:38;;;;;;;7.50;2.00;;;;;;;7.14;87.68;100590.57;113132;1198;25024;-58
2021/10/13 09:39:12;;;;;;;8.20;2.70;;;;;;;7.18;87.16;100591.48;113158;1198;22448;-57
2021/10/13 09:42:05;;;;;;;6.80;2.10;;;;;;;7.19;86.85;100593.92;113205;1192;23116;-57
2021/10/13 09:44:38;;;;;;;8.40;2.40;;;;;;;7.22;87.19;100595.31;113331;1198;24091;-57
2021/10/13 09:47:11;;;;;;;7.70;2.50;;;;;;;7.29;87.39;100600.54;113203;1198;22489;-54
2021/10/13 09:49:44;;;;;;;8.50;2.50;;;;;;;7.36;87.56;100603.73;113364;1198;22498;-56
2021/10/13 09:52:17;;;;;;;10.50;2.10;;;;;;;7.44;87.22;100607.20;113214;1198;22430;-56
2021/10/13 09:54:58;;;;;;;9.70;2.80;;;;;;;7.50;87.11;100609.44;113638;1198;23892;-56
2021/10/13 09:57:31;;;;;;;6.30;1.70;;;;;;;7.59;87.03;100611.44;113074;1198;26297;-55
2021/10/13 10:00:11;;;;;;;6.40;1.70;;;;;;;7.66;86.76;100613.46;112996;1192;25049;-60
2021/10/13 10:02:48;;;;;;;7.60;1.50;;;;;;;7.74;86.62;100617.48;113208;1192;25190;-57
2021/10/13 10:05:25;;;;;;;8.00;1.70;;;;;;;7.76;86.13;100618.75;113102;1191;24089;-59
2021/10/13 10:08:06;;;;;;;6.80;1.70;;;;;;;7.78;85.81;100617.83;112959;1199;22452;-58
2021/10/13 10:10:39;;;;;;;7.90;1.50;;;;;;;7.79;85.98;100616.76;113215;1199;25200;-57
2021/10/13 10:13:11;;;;;;;5.40;1.50;;;;;;;7.80;85.36;100617.20;113110;1193;25385;-57
2021/10/13 10:15:43;;;;;;;6.40;1.40;;;;;;;7.80;85.79;100617.52;113592;1192;22435;-56
2021/10/13 10:18:36;;;;;;;7.80;1.90;;;;;;;7.85;85.73;100616.92;113219;1198;22474;-58
2021/10/13 10:21:21;;;;;;;8.50;1.60;;;;;;;7.93;85.72;100616.16;113367;1199;22414;-55
2021/10/13 10:23:53;;;;;;;6.10;1.40;;;;;;;8.03;85.95;100612.86;113389;1199;25155;-60
2021/10/13 10:26:35;;;;;;;7.30;1.10;;;;;;;8.18;86.20;100609.35;113408;1198;23606;-59
2021/10/13 10:29:15;;;;;;;7.80;1.40;;;;;;;8.34;85.61;100611.11;113826;1192;22450;-60
2021/10/13 10:31:57;;;;;;;5.40;0.90;;;;;;;8.47;84.50;100616.83;114841;1199;24086;-58
2021/10/13 10:34:28;;;;;;;5.10;1.10;;;;;;;8.54;83.91;100609.44;112919;1192;23721;-58
2021/10/13 10:37:15;;;;;;;6.40;1.30;;;;;;;8.61;83.90;100613.90;112836;1194;22485;-57
2021/10/13 10:40:02;;;;;;;4.20;1.20;;;;;;;8.66;82.70;100620.41;113207;1199;26280;-57
2021/10/13 10:42:58;;;;;;;4.30;0.70;;;;;;;8.64;82.12;100622.41;113171;1199;25226;-59
2021/10/13 10:45:35;;;;;;;3.60;0.90;;;;;;;8.64;82.89;100624.79;113016;1199;22539;-57
2021/10/13 10:48:18;;;;;;;4.60;1.00;;;;;;;8.67;82.64;100627.86;112718;1192;25162;-57
2021/10/13 10:51:02;;;;;;;2.90;1.00;;;;;;;8.66;82.63;100625.45;112857;1195;25309;-55
2021/10/13 10:53:44;;;;;;;3.40;0.90;;;;;;;8.63;83.37;100627.31;113114;1197;22647;-57
2021/10/13 10:56:29;;;;;;;4.70;1.00;;;;;;;8.62;83.50;100622.27;114324;1193;25065;-57
2021/10/13 10:59:24;;;;;;;2.40;0.60;;;;;;;8.56;83.01;100614.70;113126;1199;22612;-58
2021/10/13 11:02:12;;;;;;;2.60;0.60;;;;;;;8.48;83.16;100613.18;113077;1199;22421;-58
2021/10/13 11:04:43;;;;;;;2.70;0.50;;;;;;;8.41;83.52;100611.15;113375;1199;25392;-57
2021/10/13 11:07:20;;;;;;;4.20;0.50;;;;;;;8.34;83.19;100615.55;113213;1192;22476;-58
2021/10/13 11:10:00;;;;;;;2.90;0.50;;;;;;;8.27;83.42;100619.09;113169;1199;24487;-58
2021/10/13 11:12:49;;;;;;;6.90;0.80;;;;;;;8.24;84.01;100624.31;112958;1199;24091;-58
2021/10/13 11:15:21;;;;;;;7.50;1.00;;;;;;;8.26;84.61;100623.33;113034;1199;25092;-56
2021/10/13 11:17:53;;;;;;;6.80;1.50;;;;;;;8.30;84.93;100626.27;113060;1199;22764;-58
2021/10/13 11:20:25;;;;;;;5.00;0.90;;;;;;;8.36;84.77;100630.17;113163;1199;22489;-56
2021/10/13 11:23:00;;;;;;;6.30;0.90;;;;;;;8.42;84.51;100626.46;113116;1199;23708;-57
2021/10/13 11:25:33;;;;;;;7.90;1.30;;;;;;;8.48;84.28;100629.50;113355;1199;27470;-57
2021/10/13 11:28:06;;;;;;;6.70;1.30;;;;;;;8.55;84.60;100629.30;113177;1192;22424;-57
2021/10/13 11:30:43;;;;;;;7.00;1.60;;;;;;;8.67;84.80;100631.55;113195;1199;25138;-58
2021/10/13 11:33:17;;;;;;;6.10;1.50;;;;;;;8.75;84.34;100631.59;113223;1199;24059;-58
2021/10/13 11:35:49;;;;;;;8.50;1.30;;;;;;;8.82;84.03;100628.95;113198;1198;24127;-58
2021/10/13 11:38:22;;;;;;;5.90;1.30;;;;;;;8.91;84.28;100630.51;112808;1199;22427;-57
2021/10/13 11:40:53;;;;;;;6.30;1.30;;;;;;;9.00;84.11;100631.73;113069;1199;25296;-57
2021/10/13 11:43:24;;;;;;;8.70;1.50;;;;;;;9.04;83.28;100632.23;112914;1199;22430;-58
2021/10/13 11:45:56;;;;;;;4.60;1.10;;;;;;;9.04;82.95;100633.41;113096;1199;22448;-58
2021/10/13 11:48:29;;;;;;;5.80;1.70;;;;;;;9.04;82.90;100630.88;113169;1199;26105;-55
2021/10/13 11:51:04;;;;;;;4.90;1.60;;;;;;;9.03;82.52;100626.29;113119;1199;22416;-58